Time;durP1;ratioP1;P1;durP2;ratioP2;P2;SDS_P1;SDS_P2;PMS_P1;PMS_P2;Temp;Humidity;BMP_temperature;BMP_pressure;BME280_temperature;BME280_humidity;BME280_pressure;Samples;Min_cycle;Max_cycle;Signal;HPM_P1;HPM_P2
2022/10/08 00:02:22;;;;;;;2.13;0.90;;;18.00;77.40;;;;;;5099223;28;20059;-79
2022/10/08 00:04:48;;;;;;;1.30;0.68;;;18.00;77.40;;;;;;5094682;28;20032;-79
2022/10/08 00:07:13;;;;;;;0.93;0.70;;;18.00;77.40;;;;;;5092527;28;20019;-79
2022/10/08 00:09:39;;;;;;;1.55;0.73;;;18.00;77.40;;;;;;5111429;28;20027;-79
2022/10/08 00:12:04;;;;;;;1.98;0.60;;;18.00;77.40;;;;;;5114841;28;20024;-79
2022/10/08 00:14:30;;;;;;;2.15;0.60;;;18.00;77.50;;;;;;5115013;28;20031;-79
2022/10/08 00:16:56;;;;;;;1.40;0.77;;;18.00;77.50;;;;;;5113661;28;20055;-79
2022/10/08 00:19:21;;;;;;;3.45;1.00;;;18.00;77.40;;;;;;5114739;28;20402;-79
2022/10/08 00:21:51;;;;;;;1.65;0.60;;;18.00;77.40;;;;;;5114659;28;20016;-79
2022/10/08 00:24:17;;;;;;;1.05;0.47;;;18.00;77.40;;;;;;5114657;28;20027;-79
2022/10/08 00:26:43;;;;;;;1.80;0.75;;;18.00;77.40;;;;;;5113615;28;20023;-79
2022/10/08 00:29:10;;;;;;;0.65;0.40;;;18.00;77.40;;;;;;5096597;28;20028;-79
2022/10/08 00:31:39;;;;;;;1.27;0.70;;;18.00;77.40;;;;;;5113557;28;20015;-79
2022/10/08 00:34:07;;;;;;;1.20;0.65;;;18.00;77.40;;;;;;5113372;28;20138;-79
2022/10/08 00:36:33;;;;;;;1.13;0.60;;;18.00;77.40;;;;;;5113355;28;20080;-79
2022/10/08 00:39:00;;;;;;;1.13;0.60;;;18.00;77.40;;;;;;5113003;28;20026;-79
2022/10/08 00:41:27;;;;;;;2.00;0.80;;;18.00;77.40;;;;;;5096316;28;20011;-79
2022/10/08 00:43:54;;;;;;;1.13;0.60;;;18.00;77.40;;;;;;5114280;28;20084;-79
2022/10/08 00:46:24;;;;;;;1.40;0.60;;;18.00;77.40;;;;;;5096354;28;20377;-79
2022/10/08 00:48:54;;;;;;;1.00;0.50;;;18.00;77.40;;;;;;5113214;28;20074;-79
2022/10/08 00:51:19;;;;;;;1.73;0.60;;;18.00;77.40;;;;;;5112716;28;20385;-79
2022/10/08 00:53:45;;;;;;;1.10;0.63;;;18.00;77.50;;;;;;5113089;28;20106;-79
2022/10/08 00:56:11;;;;;;;1.40;0.73;;;17.90;77.40;;;;;;5114223;28;20466;-79
2022/10/08 00:58:37;;;;;;;1.65;0.55;;;17.90;77.40;;;;;;5112932;28;20098;-79
2022/10/08 01:01:03;;;;;;;1.52;0.80;;;17.90;77.40;;;;;;5090906;28;20031;-79
2022/10/08 01:03:28;;;;;;;0.85;0.68;;;17.90;77.40;;;;;;5075348;28;20021;-79
2022/10/08 01:06:13;;;;;;;2.78;0.82;;;17.90;77.40;;;;;;5093538;28;20024;-79
2022/10/08 01:08:57;;;;;;;1.75;0.60;;;17.90;78.40;;;;;;5100472;28;20016;-79
2022/10/08 01:11:55;;;;;;;1.50;0.50;;;17.90;77.40;;;;;;5112838;28;20035;-79
2022/10/08 01:14:43;;;;;;;2.00;0.60;;;17.90;77.40;;;;;;5095123;28;20410;-79
2022/10/08 01:17:24;;;;;;;1.38;0.60;;;17.90;77.40;;;;;;5112263;28;20027;-79
2022/10/08 01:20:14;;;;;;;0.98;0.55;;;17.90;77.40;;;;;;5112113;28;20028;-79
2022/10/08 01:22:52;;;;;;;1.23;0.50;;;17.90;77.40;;;;;;5113769;28;20015;-79
2022/10/08 01:25:45;;;;;;;1.05;0.73;;;17.90;77.40;;;;;;5113457;28;20027;-79
2022/10/08 01:28:13;;;;;;;1.52;0.68;;;17.90;77.40;;;;;;5113558;28;20015;-79
2022/10/08 01:30:51;;;;;;;0.95;0.47;;;17.90;77.40;;;;;;5112378;28;20167;-79
2022/10/08 01:33:34;;;;;;;1.10;0.50;;;17.90;77.40;;;;;;5095596;28;20024;-79
2022/10/08 01:36:00;;;;;;;1.33;0.70;;;17.90;77.40;;;;;;5097050;28;20092;-79
2022/10/08 01:38:28;;;;;;;1.73;0.63;;;17.90;77.40;;;;;;5095224;28;20529;-79
2022/10/08 01:40:57;;;;;;;1.25;0.60;;;17.90;77.40;;;;;;5095197;28;20480;-79
2022/10/08 01:43:23;;;;;;;0.93;0.60;;;17.90;77.40;;;;;;5112081;28;20054;-79
2022/10/08 01:45:52;;;;;;;0.77;0.50;;;17.90;77.40;;;;;;5095186;28;20108;-79
2022/10/08 01:48:28;;;;;;;1.75;0.70;;;17.90;77.40;;;;;;5111658;28;20055;-79
2022/10/08 01:51:02;;;;;;;2.25;0.52;;;17.90;77.40;;;;;;5096114;28;20019;-79
2022/10/08 01:53:31;;;;;;;1.83;0.70;;;17.90;77.40;;;;;;5111896;28;20493;-79
2022/10/08 01:55:57;;;;;;;2.42;0.85;;;17.90;77.40;;;;;;5095590;28;20542;-79
2022/10/08 01:58:43;;;;;;;1.10;0.50;;;17.90;77.40;;;;;;5094729;28;20046;-79
2022/10/08 02:01:14;;;;;;;1.08;0.52;;;17.90;77.40;;;;;;5106926;28;20044;-79
2022/10/08 02:04:31;;;;;;;2.10;0.65;;;17.90;77.40;;;;;;5075187;28;20061;-79
2022/10/08 02:06:25;;;;;;;0.85;0.65;;;17.90;77.40;;;;;;5077342;28;20032;-79
2022/10/08 02:08:51;;;;;;;1.30;0.43;;;17.90;77.40;;;;;;5084437;28;20493;-79
2022/10/08 02:11:17;;;;;;;2.03;0.68;;;17.90;77.40;;;;;;5111526;28;20402;-79
2022/10/08 02:13:42;;;;;;;0.77;0.60;;;17.90;78.40;;;;;;5111802;28;20015;-79
2022/10/08 02:16:10;;;;;;;1.65;0.52;;;17.90;77.40;;;;;;5111472;28;20084;-79
2022/10/08 02:18:41;;;;;;;1.35;0.47;;;17.90;77.40;;;;;;5094880;28;20047;-79
2022/10/08 02:21:19;;;;;;;1.80;0.80;;;17.90;77.30;;;;;;5094742;28;20490;-79
2022/10/08 02:23:57;;;;;;;0.82;0.50;;;17.90;77.40;;;;;;5111545;28;20027;-79
2022/10/08 02:26:34;;;;;;;2.80;0.60;;;17.90;77.40;;;;;;5112490;28;20046;-79
2022/10/08 02:29:02;;;;;;;0.88;0.70;;;17.90;77.40;;;;;;5095934;28;20031;-79
2022/10/08 02:31:31;;;;;;;1.50;0.50;;;17.90;77.40;;;;;;5081973;28;20450;-79
2022/10/08 02:34:05;;;;;;;0.65;0.40;;;17.90;77.30;;;;;;5116935;28;20019;-79
2022/10/08 02:36:35;;;;;;;1.08;0.47;;;17.90;77.40;;;;;;5115648;28;20114;-79
2022/10/08 02:39:02;;;;;;;1.25;0.50;;;17.90;78.40;;;;;;5099095;28;20077;-79
2022/10/08 02:41:40;;;;;;;1.17;0.55;;;17.90;77.40;;;;;;5098779;28;20119;-79
2022/10/08 02:44:13;;;;;;;1.30;0.68;;;17.80;77.30;;;;;;5098830;28;20073;-79
2022/10/08 02:46:39;;;;;;;2.45;0.55;;;17.90;77.40;;;;;;5098451;28;20047;-79
2022/10/08 02:49:11;;;;;;;2.80;0.77;;;17.80;77.30;;;;;;5098474;28;20028;-79
2022/10/08 02:51:39;;;;;;;1.40;0.60;;;17.90;77.40;;;;;;5115339;28;20071;-79
2022/10/08 02:54:05;;;;;;;1.95;0.40;;;17.90;77.40;;;;;;5098365;28;20047;-79
2022/10/08 02:56:42;;;;;;;1.45;0.50;;;17.80;77.30;;;;;;5098362;28;20023;-79
2022/10/08 02:59:09;;;;;;;0.98;0.60;;;17.80;77.30;;;;;;5099412;28;20068;-79
2022/10/08 03:01:54;;;;;;;2.33;0.60;;;17.80;77.30;;;;;;5089026;28;20043;-79
2022/10/08 03:05:00;;;;;;;1.75;0.50;;;17.80;77.30;;;;;;5078748;28;20112;-79
2022/10/08 03:07:30;;;;;;;1.38;0.50;;;17.80;77.30;;;;;;5036620;28;20037;-79
2022/10/08 03:09:56;;;;;;;2.80;0.60;;;17.80;77.40;;;;;;5055485;28;20414;-79
2022/10/08 03:12:21;;;;;;;1.88;0.63;;;17.80;78.30;;;;;;5056641;28;20051;-79
2022/10/08 03:14:48;;;;;;;1.70;0.60;;;17.90;77.40;;;;;;5056615;28;20395;-79
2022/10/08 03:17:18;;;;;;;0.88;0.57;;;17.80;77.40;;;;;;5056542;28;20552;-79
2022/10/08 03:19:44;;;;;;;2.28;0.50;;;17.80;77.40;;;;;;5040429;28;20032;-79
2022/10/08 03:22:10;;;;;;;1.25;0.57;;;17.80;77.30;;;;;;5056562;28;20107;-79
2022/10/08 03:24:36;;;;;;;0.57;0.30;;;17.80;77.30;;;;;;5056479;28;20494;-79
2022/10/08 03:27:02;;;;;;;1.23;0.50;;;17.80;77.30;;;;;;5056525;28;20051;-79
2022/10/08 03:29:28;;;;;;;1.42;0.50;;;17.80;77.30;;;;;;5056029;28;20505;-79
2022/10/08 03:31:53;;;;;;;0.60;0.38;;;17.80;77.30;;;;;;5073043;28;20052;-79
2022/10/08 03:34:19;;;;;;;2.72;0.50;;;17.80;77.30;;;;;;5056237;28;20025;-79
2022/10/08 03:36:45;;;;;;;0.68;0.40;;;17.80;77.30;;;;;;5073074;28;20072;-79
2022/10/08 03:39:11;;;;;;;2.10;0.50;;;17.80;77.30;;;;;;5110203;28;20048;-79
2022/10/08 03:41:36;;;;;;;1.58;0.50;;;17.80;77.30;;;;;;5113247;28;20023;-79
2022/10/08 03:44:02;;;;;;;1.30;0.60;;;17.80;77.40;;;;;;5097254;28;20401;-79
2022/10/08 03:46:28;;;;;;;0.98;0.50;;;17.80;77.30;;;;;;5097382;28;20028;-79
2022/10/08 03:48:53;;;;;;;1.20;0.50;;;17.80;77.40;;;;;;5115583;28;20054;-79
2022/10/08 03:51:19;;;;;;;0.95;0.40;;;17.80;77.40;;;;;;5115203;28;20027;-79
2022/10/08 03:53:45;;;;;;;1.50;0.60;;;17.80;77.30;;;;;;5097129;28;20397;-79
2022/10/08 03:56:16;;;;;;;1.25;0.50;;;17.80;77.30;;;;;;5097297;28;20027;-79
2022/10/08 03:58:42;;;;;;;2.05;0.50;;;17.80;77.30;;;;;;5097016;28;20042;-79
2022/10/08 04:01:13;;;;;;;1.35;0.50;;;17.80;78.30;;;;;;5091521;28;20016;-79
2022/10/08 04:03:38;;;;;;;0.90;0.40;;;17.80;77.40;;;;;;5093685;28;20020;-79
2022/10/08 04:06:04;;;;;;;1.65;0.40;;;17.80;77.30;;;;;;5093720;28;20024;-78
2022/10/08 04:08:30;;;;;;;1.48;0.47;;;17.80;77.30;;;;;;5083498;28;20062;-79
2022/10/08 04:10:55;;;;;;;0.73;0.40;;;17.80;77.30;;;;;;5115015;28;20486;-79
2022/10/08 04:13:21;;;;;;;2.15;0.93;;;17.80;77.40;;;;;;5113529;28;20050;-79
2022/10/08 04:15:49;;;;;;;1.52;0.60;;;17.70;77.30;;;;;;5113657;28;20027;-79
2022/10/08 04:18:15;;;;;;;0.63;0.40;;;17.80;77.50;;;;;;5113832;28;20023;-79
2022/10/08 04:20:41;;;;;;;1.95;0.52;;;17.80;77.40;;;;;;5096697;28;20038;-79
2022/10/08 04:23:07;;;;;;;1.35;0.60;;;17.80;77.40;;;;;;5096745;28;20020;-79
2022/10/08 04:25:33;;;;;;;0.88;0.50;;;17.80;77.40;;;;;;5113614;28;20367;-79
2022/10/08 04:27:58;;;;;;;1.17;0.70;;;17.80;77.40;;;;;;5113374;28;20090;-79
2022/10/08 04:30:24;;;;;;;1.30;0.50;;;17.70;77.30;;;;;;5114728;28;20439;-79
2022/10/08 04:32:49;;;;;;;1.88;0.52;;;17.70;77.40;;;;;;5114786;28;20042;-79
2022/10/08 04:35:15;;;;;;;1.52;0.57;;;17.70;77.30;;;;;;5114502;28;20023;-79
2022/10/08 04:37:41;;;;;;;2.03;0.55;;;17.70;77.40;;;;;;5114524;28;20023;-78
2022/10/08 04:40:07;;;;;;;1.05;0.50;;;17.80;77.40;;;;;;5114407;28;20102;-78
2022/10/08 04:42:33;;;;;;;0.47;0.40;;;17.70;77.30;;;;;;5112868;28;20046;-78
2022/10/08 04:44:58;;;;;;;1.85;0.95;;;17.70;77.30;;;;;;5114504;28;20048;-79
2022/10/08 04:47:24;;;;;;;1.95;0.77;;;17.70;77.30;;;;;;5114296;28;20027;-78
2022/10/08 04:49:50;;;;;;;1.73;0.70;;;17.70;77.30;;;;;;5113237;28;20047;-78
2022/10/08 04:52:17;;;;;;;0.70;0.40;;;17.80;77.30;;;;;;5113835;28;20039;-78
2022/10/08 04:54:43;;;;;;;0.80;0.40;;;17.80;77.30;;;;;;5114206;28;20107;-78
2022/10/08 04:57:09;;;;;;;1.05;0.47;;;17.80;77.30;;;;;;5113896;28;20623;-78
2022/10/08 04:59:34;;;;;;;0.70;0.60;;;17.70;77.30;;;;;;5113905;28;20035;-78
2022/10/08 05:02:00;;;;;;;1.05;0.52;;;17.70;77.30;;;;;;5100120;28;20084;-78
2022/10/08 05:04:26;;;;;;;0.75;0.50;;;17.70;77.30;;;;;;5093535;28;20024;-79
2022/10/08 05:06:51;;;;;;;1.65;0.70;;;17.70;77.30;;;;;;5092604;28;20125;-78
2022/10/08 05:09:17;;;;;;;3.28;0.60;;;17.70;77.40;;;;;;5106959;28;20437;-78
2022/10/08 05:11:43;;;;;;;1.30;0.60;;;17.70;77.30;;;;;;5112395;28;20016;-78
2022/10/08 05:14:09;;;;;;;1.38;0.65;;;17.70;77.20;;;;;;5113747;28;20375;-78
2022/10/08 05:16:34;;;;;;;1.58;0.50;;;17.70;77.20;;;;;;5112421;28;20504;-78
2022/10/08 05:19:00;;;;;;;1.20;0.60;;;17.70;77.30;;;;;;5095591;28;20032;-78
2022/10/08 05:21:27;;;;;;;1.30;0.60;;;17.70;77.30;;;;;;5113581;28;20024;-78
2022/10/08 05:24:06;;;;;;;0.75;0.30;;;17.70;77.30;;;;;;5095712;28;20031;-78
2022/10/08 05:26:36;;;;;;;2.58;0.50;;;17.70;77.30;;;;;;5112151;28;20102;-78
2022/10/08 05:29:02;;;;;;;0.30;0.30;;;17.70;77.20;;;;;;5095572;28;20027;-78
2022/10/08 05:31:28;;;;;;;1.08;0.50;;;17.70;77.30;;;;;;5095332;28;20550;-78
2022/10/08 05:33:54;;;;;;;0.70;0.32;;;17.70;77.30;;;;;;5112198;28;20032;-78
2022/10/08 05:36:25;;;;;;;1.80;0.65;;;17.70;77.30;;;;;;5112153;28;20140;-78
2022/10/08 05:38:50;;;;;;;1.48;0.50;;;17.70;77.20;;;;;;5112031;28;20023;-78
2022/10/08 05:41:21;;;;;;;1.15;0.50;;;17.70;77.20;;;;;;5094970;28;20015;-78
2022/10/08 05:43:47;;;;;;;2.38;0.65;;;17.70;77.20;;;;;;5095640;28;20484;-78
2022/10/08 05:46:13;;;;;;;0.40;0.30;;;17.70;77.30;;;;;;5112054;28;20068;-79
2022/10/08 05:48:39;;;;;;;0.65;0.50;;;17.70;77.20;;;;;;5113144;28;20028;-78
2022/10/08 05:51:14;;;;;;;1.13;0.65;;;17.70;77.20;;;;;;5112048;28;20505;-78
2022/10/08 05:53:44;;;;;;;0.80;0.40;;;17.70;77.20;;;;;;5111745;28;20046;-78
2022/10/08 05:56:10;;;;;;;1.63;0.70;;;17.70;77.20;;;;;;5111955;28;20031;-78
2022/10/08 05:58:38;;;;;;;3.00;0.82;;;17.70;77.20;;;;;;5111692;28;20019;-78
2022/10/08 06:01:05;;;;;;;1.83;0.52;;;17.70;77.20;;;;;;5090241;28;20017;-78
2022/10/08 06:03:31;;;;;;;1.73;0.60;;;17.70;77.20;;;;;;5090624;28;20398;-78
2022/10/08 06:06:01;;;;;;;3.00;0.65;;;17.70;77.20;;;;;;5074537;28;20020;-78
2022/10/08 06:08:26;;;;;;;2.03;0.50;;;17.70;77.20;;;;;;5097646;28;20007;-78
2022/10/08 06:10:53;;;;;;;0.95;0.50;;;17.60;77.20;;;;;;5111755;28;20020;-78
2022/10/08 06:13:19;;;;;;;1.90;0.63;;;17.70;77.20;;;;;;5094714;28;20035;-78
2022/10/08 06:15:58;;;;;;;0.50;0.35;;;17.60;77.30;;;;;;5111528;28;20030;-78
2022/10/08 06:18:24;;;;;;;0.80;0.45;;;17.60;77.20;;;;;;5111652;28;20023;-78
2022/10/08 06:20:50;;;;;;;1.25;0.57;;;17.70;77.40;;;;;;5111739;28;20024;-78
2022/10/08 06:23:16;;;;;;;2.38;0.73;;;17.60;77.20;;;;;;5111395;28;20023;-78
2022/10/08 06:25:41;;;;;;;1.85;0.40;;;17.60;77.30;;;;;;5111473;28;20064;-78
2022/10/08 06:28:07;;;;;;;1.13;0.45;;;17.60;77.30;;;;;;5112779;28;20401;-78
2022/10/08 06:30:32;;;;;;;1.55;0.50;;;17.60;77.30;;;;;;5111528;28;20486;-78
2022/10/08 06:32:58;;;;;;;0.95;0.50;;;17.60;77.30;;;;;;5112826;28;20052;-78
2022/10/08 06:35:24;;;;;;;0.77;0.50;;;17.60;77.30;;;;;;5112810;28;20019;-78
2022/10/08 06:37:49;;;;;;;2.47;0.40;;;17.60;77.30;;;;;;5112511;28;20023;-78
2022/10/08 06:40:15;;;;;;;0.57;0.45;;;17.60;77.30;;;;;;5111470;28;20103;-78
2022/10/08 06:42:41;;;;;;;2.22;0.63;;;17.60;77.30;;;;;;5111504;28;20035;-78
2022/10/08 06:45:07;;;;;;;0.98;0.50;;;17.60;77.30;;;;;;5111480;28;20011;-78
2022/10/08 06:47:32;;;;;;;1.05;0.52;;;17.50;77.20;;;;;;5094601;28;20043;-78
2022/10/08 06:49:59;;;;;;;0.90;0.40;;;17.60;77.30;;;;;;5111428;28;20398;-78
2022/10/08 06:52:25;;;;;;;1.45;0.70;;;17.60;78.30;;;;;;5112230;28;20052;-78
2022/10/08 06:54:50;;;;;;;1.40;0.60;;;17.60;77.30;;;;;;5111259;28;20035;-78
2022/10/08 06:57:16;;;;;;;2.67;0.45;;;17.60;77.30;;;;;;5111509;28;20031;-78
2022/10/08 06:59:42;;;;;;;4.22;0.50;;;17.60;77.30;;;;;;5111204;28;20045;-78
2022/10/08 07:02:09;;;;;;;1.88;0.55;;;17.60;77.30;;;;;;5098626;28;20405;-78
2022/10/08 07:04:34;;;;;;;0.63;0.52;;;17.60;77.30;;;;;;5073993;28;20021;-78
2022/10/08 07:07:00;;;;;;;1.98;0.55;;;17.60;77.30;;;;;;5090762;28;20027;-78
2022/10/08 07:09:26;;;;;;;1.50;0.50;;;17.50;77.30;;;;;;5107047;28;20019;-78
2022/10/08 07:11:51;;;;;;;1.73;0.50;;;17.60;77.30;;;;;;5111046;28;20031;-78
2022/10/08 07:14:17;;;;;;;2.22;0.65;;;17.60;77.30;;;;;;5112452;28;20076;-78
2022/10/08 07:16:42;;;;;;;0.55;0.40;;;17.50;77.30;;;;;;5116236;28;20084;-78
2022/10/08 07:19:08;;;;;;;1.45;0.43;;;17.50;77.30;;;;;;5115948;28;20059;-78
2022/10/08 07:21:34;;;;;;;1.05;0.40;;;17.50;77.30;;;;;;5114722;28;20118;-78
2022/10/08 07:24:00;;;;;;;1.38;0.60;;;17.50;77.40;;;;;;5116033;28;20145;-78
2022/10/08 07:26:27;;;;;;;1.15;0.68;;;17.50;77.30;;;;;;5114768;28;20486;-78
2022/10/08 07:28:53;;;;;;;1.10;0.40;;;17.50;77.40;;;;;;5115048;28;20027;-78
2022/10/08 07:31:21;;;;;;;1.25;0.60;;;17.50;77.30;;;;;;5115921;28;20032;-78
2022/10/08 07:33:46;;;;;;;1.50;0.50;;;17.50;77.30;;;;;;5114661;28;20024;-78
2022/10/08 07:36:16;;;;;;;0.73;0.50;;;17.50;77.30;;;;;;5114483;28;20379;-78
2022/10/08 07:38:42;;;;;;;1.67;0.50;;;17.50;77.40;;;;;;5114498;28;20012;-78
2022/10/08 07:41:09;;;;;;;0.60;0.35;;;17.50;77.40;;;;;;5115652;28;20122;-78
2022/10/08 07:43:35;;;;;;;2.00;0.68;;;17.50;77.40;;;;;;5097691;28;20046;-78
2022/10/08 07:46:01;;;;;;;0.88;0.55;;;17.50;77.40;;;;;;5115490;28;20379;-78
2022/10/08 07:48:27;;;;;;;1.08;0.60;;;17.50;77.30;;;;;;5114326;28;20023;-78
2022/10/08 07:50:53;;;;;;;1.40;0.50;;;17.50;77.40;;;;;;5115327;28;20023;-78
2022/10/08 07:53:19;;;;;;;1.25;0.70;;;17.50;77.50;;;;;;5115160;28;20133;-78
2022/10/08 07:55:44;;;;;;;1.90;0.63;;;17.50;77.40;;;;;;5115185;28;20027;-78
2022/10/08 07:58:10;;;;;;;1.30;0.45;;;17.50;77.20;;;;;;5115549;28;20024;-78
2022/10/08 08:00:39;;;;;;;2.08;0.50;;;17.50;77.30;;;;;;5113021;28;20051;-78
2022/10/08 08:03:05;;;;;;;3.22;0.55;;;17.50;77.30;;;;;;5093665;28;20038;-78
2022/10/08 08:05:34;;;;;;;1.42;0.50;;;17.50;77.40;;;;;;5093478;28;20494;-78
2022/10/08 08:07:59;;;;;;;1.42;0.60;;;17.50;77.50;;;;;;5096153;28;20498;-78
2022/10/08 08:10:25;;;;;;;1.42;0.45;;;17.50;77.40;;;;;;5115196;28;20028;-78
2022/10/08 08:12:50;;;;;;;1.38;0.60;;;17.50;77.40;;;;;;5115140;28;20027;-78
2022/10/08 08:15:16;;;;;;;0.80;0.50;;;17.50;77.40;;;;;;5115115;28;20031;-78
2022/10/08 08:17:42;;;;;;;1.98;0.63;;;17.50;77.40;;;;;;5114780;28;20024;-78
2022/10/08 08:20:08;;;;;;;1.40;0.55;;;17.50;77.40;;;;;;5114723;28;20114;-78
2022/10/08 08:22:33;;;;;;;1.33;0.52;;;17.50;77.40;;;;;;5113873;28;20084;-78
2022/10/08 08:24:59;;;;;;;1.33;0.50;;;17.50;77.40;;;;;;5114956;28;20051;-78
2022/10/08 08:27:25;;;;;;;1.48;0.63;;;17.50;77.40;;;;;;5114033;28;20094;-78
2022/10/08 08:29:50;;;;;;;1.83;0.47;;;17.50;77.50;;;;;;5114836;28;20106;-78
2022/10/08 08:32:16;;;;;;;1.40;0.57;;;17.50;77.50;;;;;;5114792;28;20024;-78
2022/10/08 08:34:42;;;;;;;1.90;0.50;;;17.50;77.60;;;;;;5113218;28;20024;-78
2022/10/08 08:37:07;;;;;;;2.05;0.70;;;17.50;77.50;;;;;;5114725;28;20019;-78
2022/10/08 08:39:33;;;;;;;2.25;0.65;;;17.50;77.60;;;;;;5114479;28;20039;-78
2022/10/08 08:42:20;;;;;;;1.35;0.60;;;17.50;77.70;;;;;;5114242;28;20022;-78
2022/10/08 08:44:47;;;;;;;0.98;0.52;;;17.50;77.60;;;;;;5113226;28;20100;-78
2022/10/08 08:47:12;;;;;;;1.58;0.70;;;17.50;77.60;;;;;;5096332;28;20398;-78
2022/10/08 08:49:43;;;;;;;1.42;0.60;;;17.50;77.60;;;;;;5114100;28;20034;-78
2022/10/08 08:52:10;;;;;;;0.70;0.50;;;17.50;77.70;;;;;;5114135;28;20040;-78
2022/10/08 08:54:36;;;;;;;1.17;0.73;;;17.40;77.60;;;;;;5096549;28;20031;-78
2022/10/08 08:57:29;;;;;;;0.95;0.60;;;17.50;77.60;;;;;;5096069;28;20028;-78
2022/10/08 08:59:57;;;;;;;1.75;0.60;;;17.50;77.70;;;;;;5113966;28;20028;-78
2022/10/08 09:02:27;;;;;;;1.45;0.50;;;17.50;77.70;;;;;;5079966;28;20024;-78
2022/10/08 09:04:57;;;;;;;0.98;0.60;;;17.50;77.70;;;;;;5076127;28;20031;-78
2022/10/08 09:07:25;;;;;;;1.77;0.50;;;17.40;77.60;;;;;;5075688;28;20502;-78
2022/10/08 09:09:51;;;;;;;0.80;0.47;;;17.40;77.70;;;;;;5110533;28;20080;-78
2022/10/08 09:12:19;;;;;;;1.02;0.63;;;17.40;77.70;;;;;;5096042;28;20020;-78
2022/10/08 09:14:49;;;;;;;1.42;0.52;;;17.40;77.60;;;;;;5112662;28;20460;-78
2022/10/08 09:17:17;;;;;;;2.30;0.65;;;17.50;77.70;;;;;;5095924;28;20051;-78
2022/10/08 09:19:43;;;;;;;1.65;0.90;;;17.40;77.70;;;;;;5112527;28;20024;-78
2022/10/08 09:22:48;;;;;;;1.35;0.60;;;17.40;77.70;;;;;;5095694;28;20030;-78
2022/10/08 09:25:21;;;;;;;1.42;0.57;;;17.50;77.70;;;;;;5100490;28;20031;-78
2022/10/08 09:27:56;;;;;;;1.90;0.70;;;17.40;77.80;;;;;;5096019;28;20027;-78
2022/10/08 09:30:37;;;;;;;1.85;0.52;;;17.40;77.70;;;;;;5113642;28;20060;-78
2022/10/08 09:33:20;;;;;;;1.55;0.55;;;17.40;77.70;;;;;;5112999;28;20055;-78
2022/10/08 09:35:50;;;;;;;1.40;0.50;;;17.40;77.80;;;;;;5095867;28;20497;-78
2022/10/08 09:38:19;;;;;;;1.63;0.57;;;17.50;77.90;;;;;;5095625;28;20076;-78
2022/10/08 09:41:04;;;;;;;1.73;0.70;;;17.40;77.90;;;;;;5095110;28;20405;-78
2022/10/08 09:43:32;;;;;;;2.22;0.60;;;17.40;77.90;;;;;;5096487;28;20015;-78
2022/10/08 09:45:58;;;;;;;1.55;0.50;;;17.40;77.80;;;;;;5111768;28;20491;-77
2022/10/08 09:48:28;;;;;;;1.45;0.50;;;17.40;77.90;;;;;;5095263;28;20016;-78
2022/10/08 09:51:03;;;;;;;2.30;0.70;;;17.40;77.90;;;;;;5112063;28;20032;-78
2022/10/08 09:53:57;;;;;;;1.52;0.55;;;17.40;77.90;;;;;;5111919;28;20089;-78
2022/10/08 09:56:26;;;;;;;1.00;0.52;;;17.40;77.90;;;;;;5112045;28;20020;-78
2022/10/08 09:58:59;;;;;;;1.98;0.50;;;17.40;77.90;;;;;;5111792;28;20022;-77
2022/10/08 10:01:25;;;;;;;1.33;0.50;;;17.40;78.00;;;;;;5087291;28;20024;-78
2022/10/08 10:03:55;;;;;;;1.13;0.68;;;17.40;78.00;;;;;;5091491;28;20024;-78
2022/10/08 10:06:32;;;;;;;1.02;0.60;;;17.40;78.00;;;;;;5074885;28;20024;-78
2022/10/08 10:09:18;;;;;;;1.13;0.50;;;17.40;77.90;;;;;;5103176;28;20073;-78
2022/10/08 10:12:04;;;;;;;1.38;0.60;;;17.40;78.00;;;;;;5111650;28;20024;-78
2022/10/08 10:14:53;;;;;;;2.50;0.85;;;17.40;78.10;;;;;;5096168;28;20016;-78
2022/10/08 10:17:41;;;;;;;0.85;0.32;;;17.40;78.00;;;;;;5095426;28;20069;-78
2022/10/08 10:20:28;;;;;;;0.95;0.43;;;17.40;78.10;;;;;;5111392;28;20092;-78
2022/10/08 10:22:54;;;;;;;1.38;0.60;;;17.40;78.10;;;;;;5095642;28;20026;-77
2022/10/08 10:25:32;;;;;;;1.20;0.90;;;17.40;78.10;;;;;;5111668;28;20070;-78
2022/10/08 10:28:20;;;;;;;1.77;0.88;;;17.40;78.10;;;;;;5112594;28;20108;-77
2022/10/08 10:30:50;;;;;;;1.10;0.50;;;17.40;78.10;;;;;;5096497;28;20416;-78
2022/10/08 10:33:21;;;;;;;3.13;0.60;;;17.40;78.20;;;;;;5095077;28;20034;-77
2022/10/08 10:35:52;;;;;;;1.70;0.55;;;17.40;78.20;;;;;;5094781;28;20019;-78
2022/10/08 10:38:27;;;;;;;1.35;0.60;;;17.40;78.20;;;;;;5094799;28;20024;-78
2022/10/08 10:41:04;;;;;;;0.88;0.40;;;17.40;78.20;;;;;;5094735;28;20020;-78
2022/10/08 10:43:38;;;;;;;1.27;0.50;;;17.40;78.20;;;;;;5112564;28;20031;-78
2022/10/08 10:46:48;;;;;;;1.25;0.60;;;17.40;78.20;;;;;;5111427;28;20024;-77
2022/10/08 10:49:15;;;;;;;1.90;0.50;;;17.40;78.20;;;;;;5105024;28;20032;-78
2022/10/08 10:51:47;;;;;;;2.42;0.60;;;17.40;78.20;;;;;;5115180;28;20035;-78
2022/10/08 10:55:01;;;;;;;1.20;0.50;;;17.40;78.30;;;;;;5115493;28;20045;-78
2022/10/08 10:57:44;;;;;;;2.95;0.60;;;17.40;78.30;;;;;;5111352;28;20035;-78
2022/10/08 11:00:24;;;;;;;1.98;0.88;;;17.40;78.30;;;;;;5115128;28;20058;-78
2022/10/08 11:03:06;;;;;;;1.95;0.60;;;17.40;78.30;;;;;;5096356;28;20020;-78
2022/10/08 11:05:32;;;;;;;1.73;0.52;;;17.40;79.40;;;;;;5079138;28;20443;-77
2022/10/08 11:08:20;;;;;;;0.70;0.55;;;17.40;78.40;;;;;;5080130;28;20016;-78
2022/10/08 11:11:01;;;;;;;1.10;0.57;;;17.40;78.40;;;;;;5099307;28;20030;-78
2022/10/08 11:13:30;;;;;;;0.93;0.60;;;17.40;78.30;;;;;;5116103;28;20024;-78
2022/10/08 11:16:16;;;;;;;1.85;0.65;;;17.40;78.40;;;;;;5116110;28;20039;-78
2022/10/08 11:19:22;;;;;;;1.70;0.68;;;17.40;78.40;;;;;;5116242;28;20031;-78
2022/10/08 11:22:21;;;;;;;0.73;0.40;;;17.40;78.50;;;;;;5086195;28;20062;-78
2022/10/08 11:25:11;;;;;;;3.28;0.90;;;17.40;78.40;;;;;;5097333;28;20040;-78
2022/10/08 11:27:40;;;;;;;0.70;0.65;;;17.40;78.50;;;;;;5116040;28;20024;-78
2022/10/08 11:30:13;;;;;;;2.00;0.40;;;17.40;78.50;;;;;;5114713;28;20024;-78
2022/10/08 11:32:43;;;;;;;1.73;0.88;;;17.40;78.60;;;;;;5114703;28;20092;-78
2022/10/08 11:35:24;;;;;;;2.85;0.60;;;17.40;78.50;;;;;;5097739;28;20042;-78
2022/10/08 11:38:01;;;;;;;0.73;0.50;;;17.40;78.50;;;;;;5098844;28;20493;-78
2022/10/08 11:40:40;;;;;;;1.08;0.52;;;17.40;78.50;;;;;;5114321;28;20119;-78
2022/10/08 11:43:30;;;;;;;0.75;0.45;;;17.40;78.60;;;;;;5114214;28;20603;-78
2022/10/08 11:46:19;;;;;;;1.00;0.40;;;17.40;78.50;;;;;;5114228;28;20164;-78
2022/10/08 11:48:45;;;;;;;0.85;0.40;;;17.40;78.60;;;;;;5114593;28;20016;-78
2022/10/08 11:51:20;;;;;;;1.55;0.47;;;17.40;78.60;;;;;;5097429;28;20045;-78
2022/10/08 11:54:33;;;;;;;1.83;0.55;;;17.40;78.70;;;;;;5115350;28;20483;-78
2022/10/08 11:57:17;;;;;;;1.10;0.57;;;17.40;78.60;;;;;;5035716;28;20088;-78
2022/10/08 12:00:04;;;;;;;2.90;0.50;;;17.40;79.00;;;;;;5052517;28;20049;-77
2022/10/08 12:02:36;;;;;;;1.02;0.55;;;17.40;78.70;;;;;;5018294;28;20022;-77
2022/10/08 12:05:20;;;;;;;0.85;0.50;;;17.40;78.70;;;;;;5015982;28;20116;-78
2022/10/08 12:07:57;;;;;;;1.80;0.52;;;17.40;78.70;;;;;;5033181;28;20389;-78
2022/10/08 12:10:30;;;;;;;1.58;0.60;;;17.40;78.70;;;;;;5035833;28;20029;-77
2022/10/08 12:13:00;;;;;;;0.70;0.50;;;17.40;78.70;;;;;;5035745;28;20033;-78
2022/10/08 12:15:32;;;;;;;2.08;0.60;;;17.40;78.80;;;;;;5052289;28;20502;-77
2022/10/08 12:18:03;;;;;;;1.25;0.50;;;17.40;78.80;;;;;;5052138;28;20057;-78
2022/10/08 12:20:31;;;;;;;0.57;0.50;;;17.40;78.80;;;;;;5035567;28;20033;-78
2022/10/08 12:23:08;;;;;;;1.08;0.50;;;17.40;78.80;;;;;;5035836;28;20031;-78
2022/10/08 12:25:41;;;;;;;1.05;0.60;;;17.40;78.90;;;;;;5052008;28;20059;-78
2022/10/08 12:28:19;;;;;;;1.75;0.70;;;17.40;78.80;;;;;;5035513;28;20025;-78
2022/10/08 12:30:57;;;;;;;2.25;0.50;;;17.50;78.90;;;;;;5052114;28;20477;-78
2022/10/08 12:33:23;;;;;;;1.95;0.40;;;17.50;78.80;;;;;;5108786;28;20072;-77
2022/10/08 12:36:15;;;;;;;1.27;0.57;;;17.50;78.80;;;;;;5096512;28;20031;-78
2022/10/08 12:38:51;;;;;;;0.80;0.50;;;17.50;78.90;;;;;;5113356;28;20088;-78
2022/10/08 12:41:38;;;;;;;1.45;0.85;;;17.50;78.90;;;;;;5096736;28;20096;-78
2022/10/08 12:44:30;;;;;;;1.15;0.40;;;17.50;79.00;;;;;;5097841;28;20535;-78
2022/10/08 12:47:02;;;;;;;2.17;0.60;;;17.50;79.00;;;;;;5113473;28;20027;-78
2022/10/08 12:49:44;;;;;;;1.33;0.50;;;17.50;79.00;;;;;;5114353;28;20065;-78
2022/10/08 12:52:12;;;;;;;1.73;0.60;;;17.50;79.00;;;;;;5112961;28;20143;-78
2022/10/08 12:54:54;;;;;;;0.75;0.73;;;17.50;79.10;;;;;;5096200;28;20095;-78
2022/10/08 12:57:32;;;;;;;;;;;17.50;79.10;;;;;;5114543;28;20114;-78
2022/10/08 12:59:58;;;;;;;0.85;0.30;;;17.50;79.10;;;;;;5096000;28;20305;-78
2022/10/08 13:02:40;;;;;;;0.73;0.45;;;17.50;79.10;;;;;;5096820;28;20026;-78
2022/10/08 13:05:30;;;;;;;1.23;0.35;;;17.50;79.20;;;;;;5092420;28;20028;-78
2022/10/08 13:07:56;;;;;;;1.83;0.80;;;17.50;79.30;;;;;;5094537;28;20513;-78
2022/10/08 13:10:27;;;;;;;1.10;0.57;;;17.50;79.20;;;;;;5113710;28;20027;-78